createdAt,value
2023-04-01T00:01:54.024Z,9.94
2023-04-01T00:04:21.730Z,9.98
2023-04-01T00:06:48.829Z,9.92
2023-04-01T00:09:16.044Z,9.95
2023-04-01T00:11:43.104Z,10.00
2023-04-01T00:14:11.476Z,9.94
2023-04-01T00:16:40.016Z,9.96
2023-04-01T00:19:07.193Z,10.00
2023-04-01T00:21:34.358Z,10.03
2023-04-01T00:24:01.480Z,10.08
2023-04-01T00:26:28.635Z,10.08
2023-04-01T00:28:56.196Z,10.04
2023-04-01T00:31:23.407Z,10.01
2023-04-01T00:33:50.666Z,10.01
2023-04-01T00:36:20.378Z,10.07
2023-04-01T00:38:47.816Z,10.04
2023-04-01T00:41:16.936Z,10.05
2023-04-01T00:43:46.729Z,10.06
2023-04-01T00:46:13.805Z,10.09
2023-04-01T00:48:46.184Z,10.03
2023-04-01T00:51:26.780Z,10.00
2023-04-01T00:53:56.661Z,9.91
2023-04-01T00:56:28.396Z,9.90
2023-04-01T00:58:59.992Z,9.86
2023-04-01T01:01:27.316Z,9.88
2023-04-01T01:03:54.450Z,9.86
2023-04-01T01:06:34.798Z,9.81
2023-04-01T01:09:18.328Z,9.78
2023-04-01T01:11:53.199Z,9.80
2023-04-01T01:14:34.517Z,9.75
2023-04-01T01:17:29.448Z,9.68
2023-04-01T01:20:26.130Z,9.74
2023-04-01T01:23:16.742Z,9.72
2023-04-01T01:26:25.472Z,9.79
2023-04-01T01:29:09.910Z,9.76
2023-04-01T01:31:52.059Z,9.80
2023-04-01T01:34:31.614Z,9.82
2023-04-01T01:37:07.743Z,9.83
2023-04-01T01:39:36.902Z,9.86
2023-04-01T01:42:09.115Z,9.86
2023-04-01T01:44:39.186Z,9.76
2023-04-01T01:47:06.943Z,9.80
2023-04-01T01:49:36.489Z,9.67
2023-04-01T01:52:04.552Z,9.71
2023-04-01T01:54:31.649Z,9.80
2023-04-01T01:57:08.413Z,9.78
2023-04-01T01:59:39.057Z,9.70
2023-04-01T02:02:10.154Z,9.68
2023-04-01T02:04:41.182Z,9.58
2023-04-01T02:07:23.936Z,9.57
2023-04-01T02:09:51.576Z,9.58
2023-04-01T02:12:20.116Z,9.57
2023-04-01T02:14:53.870Z,9.58
2023-04-01T02:17:21.839Z,9.52
2023-04-01T02:19:56.868Z,9.53
2023-04-01T02:22:30.486Z,9.52
2023-04-01T02:25:18.821Z,9.39
2023-04-01T02:27:47.241Z,9.44
2023-04-01T02:30:16.719Z,9.51
2023-04-01T02:32:44.112Z,9.41
2023-04-01T02:35:14.807Z,9.42
2023-04-01T02:37:43.396Z,9.54
2023-04-01T02:40:13.813Z,9.47
2023-04-01T02:42:41.503Z,9.49
2023-04-01T02:45:10.202Z,9.55
2023-04-01T02:47:37.467Z,9.54
2023-04-01T02:50:05.825Z,9.50
2023-04-01T02:52:32.914Z,9.49
2023-04-01T02:54:59.959Z,9.50
2023-04-01T02:57:27.041Z,9.39
2023-04-01T02:59:54.171Z,9.36
2023-04-01T03:02:21.272Z,9.41
2023-04-01T03:04:48.520Z,9.47
2023-04-01T03:07:15.599Z,9.49
2023-04-01T03:09:42.683Z,9.52
2023-04-01T03:12:10.451Z,9.48
2023-04-01T03:14:37.448Z,9.47
2023-04-01T03:17:04.503Z,9.41
2023-04-01T03:19:31.627Z,9.57
2023-04-01T03:21:58.659Z,9.56
2023-04-01T03:24:25.671Z,9.52
2023-04-01T03:26:52.731Z,9.43
2023-04-01T03:29:19.877Z,9.44
2023-04-01T03:31:46.932Z,9.41
2023-04-01T03:34:14.044Z,9.37
2023-04-01T03:36:41.322Z,9.37
2023-04-01T03:39:08.407Z,9.37
2023-04-01T03:41:37.928Z,9.34
2023-04-01T03:44:04.960Z,9.36
2023-04-01T03:46:32.021Z,9.50
2023-04-01T03:48:59.088Z,9.44
2023-04-01T03:51:26.679Z,9.41
2023-04-01T03:53:53.942Z,9.29
2023-04-01T03:56:21.064Z,9.48
2023-04-01T03:58:48.204Z,9.47
2023-04-01T04:01:21.850Z,9.46
2023-04-01T04:03:50.606Z,9.46
2023-04-01T04:06:19.570Z,9.58
2023-04-01T04:08:46.935Z,9.51
2023-04-01T04:11:14.040Z,9.49
2023-04-01T04:13:42.720Z,9.50
2023-04-01T04:16:11.836Z,9.53
2023-04-01T04:18:38.930Z,9.57
2023-04-01T04:21:06.581Z,9.63
2023-04-01T04:23:34.611Z,9.64
2023-04-01T04:26:07.636Z,9.48
2023-04-01T04:28:35.118Z,9.44
2023-04-01T04:31:02.857Z,9.57
2023-04-01T04:33:29.927Z,9.45
2023-04-01T04:35:58.479Z,9.41
2023-04-01T04:38:25.810Z,9.40
2023-04-01T04:40:52.896Z,9.48
2023-04-01T04:43:20.244Z,9.57
2023-04-01T04:45:47.422Z,9.57
2023-04-01T04:48:19.282Z,9.57
2023-04-01T04:50:51.062Z,9.63
2023-04-01T04:53:19.959Z,9.64
2023-04-01T04:55:51.192Z,9.62
2023-04-01T04:58:18.560Z,9.65
2023-04-01T05:00:46.244Z,9.66
2023-04-01T05:03:14.570Z,9.67
2023-04-01T05:05:50.605Z,9.70
2023-04-01T05:08:18.136Z,9.63
2023-04-01T05:10:45.841Z,9.70
2023-04-01T05:13:12.906Z,9.62
2023-04-01T05:15:41.224Z,9.69
2023-04-01T05:18:08.321Z,9.82
2023-04-01T05:20:35.466Z,9.82
2023-04-01T05:23:03.937Z,9.71
2023-04-01T05:25:31.370Z,9.76
2023-04-01T05:27:58.747Z,9.76
2023-04-01T05:30:25.805Z,9.85
2023-04-01T05:32:52.966Z,9.84
2023-04-01T05:35:20.241Z,9.79
2023-04-01T05:37:47.263Z,9.79
2023-04-01T05:40:14.328Z,9.80
2023-04-01T05:42:41.836Z,9.73
2023-04-01T05:45:10.691Z,9.74
2023-04-01T05:47:37.775Z,9.78
2023-04-01T05:50:05.136Z,9.62
2023-04-01T05:52:32.626Z,9.60
2023-04-01T05:55:01.212Z,9.57
2023-04-01T05:57:28.404Z,9.55
2023-04-01T05:59:55.557Z,9.53
2023-04-01T06:02:25.591Z,9.60
2023-04-01T06:05:12.734Z,9.57
2023-04-01T06:07:40.713Z,9.66
2023-04-01T06:10:17.869Z,9.65
2023-04-01T06:12:44.878Z,9.67
2023-04-01T06:15:29.427Z,9.57
2023-04-01T06:18:20.556Z,9.69
2023-04-01T06:21:25.822Z,9.63
2023-04-01T06:24:14.193Z,9.61
2023-04-01T06:26:49.339Z,9.62
2023-04-01T06:29:42.149Z,9.63
2023-04-01T06:32:22.972Z,9.78
2023-04-01T06:35:10.721Z,9.73
2023-04-01T06:38:01.776Z,9.82
2023-04-01T06:40:37.616Z,9.78
2023-04-01T06:43:16.950Z,9.89
2023-04-01T06:46:02.550Z,9.89
2023-04-01T06:49:00.479Z,9.88
2023-04-01T06:51:42.408Z,9.89
2023-04-01T06:54:34.426Z,9.82
2023-04-01T06:57:11.899Z,9.91
2023-04-01T06:59:39.253Z,9.90
2023-04-01T07:02:43.120Z,9.93
2023-04-01T07:05:12.974Z,9.93
2023-04-01T07:07:45.605Z,9.89
2023-04-01T07:10:26.670Z,9.84
2023-04-01T07:12:59.221Z,9.84
2023-04-01T07:15:32.004Z,9.80
2023-04-01T07:18:29.416Z,9.78
2023-04-01T07:20:57.740Z,9.86
2023-04-01T07:23:30.447Z,9.88
2023-04-01T07:26:02.022Z,9.88
2023-04-01T07:28:34.972Z,9.92
2023-04-01T07:31:17.471Z,10.01
2023-04-01T07:34:20.680Z,10.05
2023-04-01T07:37:14.143Z,10.09
2023-04-01T07:39:49.182Z,10.09
2023-04-01T07:42:28.011Z,10.02
2023-04-01T07:45:10.633Z,9.97
2023-04-01T07:48:05.567Z,10.05
2023-04-01T07:50:39.127Z,10.14
2023-04-01T07:53:36.072Z,10.01
2023-04-01T07:56:06.748Z,10.08
2023-04-01T07:58:46.239Z,10.14
2023-04-01T08:01:57.112Z,10.04
2023-04-01T08:04:43.522Z,10.05
2023-04-01T08:07:52.429Z,10.17
2023-04-01T08:10:44.966Z,10.18
2023-04-01T08:13:12.065Z,10.18
2023-04-01T08:15:47.469Z,10.11
2023-04-01T08:18:23.616Z,10.16
2023-04-01T08:21:01.502Z,10.10
2023-04-01T08:23:31.795Z,10.12
2023-04-01T08:26:23.998Z,10.18
2023-04-01T08:28:56.316Z,10.18
2023-04-01T08:32:04.929Z,10.16
2023-04-01T08:34:37.434Z,10.17
2023-04-01T08:37:18.608Z,10.19
2023-04-01T08:39:52.056Z,10.26
2023-04-01T08:42:25.383Z,10.36
2023-04-01T08:45:04.503Z,10.44
2023-04-01T08:48:19.470Z,10.37
2023-04-01T08:50:49.139Z,10.43
2023-04-01T08:53:47.915Z,10.45
2023-04-01T08:56:29.691Z,10.51
2023-04-01T08:59:14.257Z,10.58
2023-04-01T09:02:05.745Z,10.39
2023-04-01T09:04:44.670Z,10.49
2023-04-01T09:07:28.808Z,10.45
2023-04-01T09:10:33.592Z,10.37
2023-04-01T09:13:22.665Z,10.55
2023-04-01T09:16:20.875Z,10.59
2023-04-01T09:18:56.798Z,10.67
2023-04-01T09:21:45.757Z,10.64
2023-04-01T09:24:24.792Z,10.80
2023-04-01T09:27:15.300Z,10.76
2023-04-01T09:30:22.651Z,10.84
2023-04-01T09:33:28.749Z,10.95
2023-04-01T09:35:55.775Z,11.07
2023-04-01T09:38:50.878Z,11.17
2023-04-01T09:41:33.959Z,11.23
2023-04-01T09:44:24.683Z,11.41
2023-04-01T09:47:04.330Z,11.35
2023-04-01T09:50:22.797Z,11.30
2023-04-01T09:53:01.658Z,11.52
2023-04-01T09:55:47.591Z,11.69
2023-04-01T09:58:23.994Z,11.85
2023-04-01T10:01:28.936Z,11.91
2023-04-01T10:04:13.063Z,11.96
2023-04-01T10:06:42.719Z,11.78
2023-04-01T10:09:33.763Z,11.86
2023-04-01T10:12:27.079Z,11.83
2023-04-01T10:15:11.949Z,11.71
2023-04-01T10:17:44.745Z,11.67
2023-04-01T10:20:54.194Z,11.51
2023-04-01T10:24:02.896Z,11.60
2023-04-01T10:26:44.969Z,11.52
2023-04-01T10:29:49.612Z,11.43
2023-04-01T10:32:43.568Z,11.44
2023-04-01T10:35:36.478Z,11.34
2023-04-01T10:38:39.236Z,11.31
2023-04-01T10:41:29.503Z,11.36
2023-04-01T10:44:21.030Z,11.36
2023-04-01T10:47:08.735Z,11.46
2023-04-01T10:49:49.849Z,11.52
2023-04-01T10:52:31.616Z,11.44
2023-04-01T10:55:26.142Z,11.54
2023-04-01T10:58:18.923Z,11.43
2023-04-01T11:01:05.028Z,11.43
2023-04-01T11:04:18.198Z,11.38
2023-04-01T11:07:08.412Z,11.33
2023-04-01T11:10:12.850Z,11.35
2023-04-01T11:13:17.555Z,11.42
2023-04-01T11:16:14.454Z,11.42
2023-04-01T11:19:13.058Z,11.29
2023-04-01T11:22:13.454Z,11.24
2023-04-01T11:24:49.464Z,11.23
2023-04-01T11:27:41.920Z,11.31
2023-04-01T11:30:09.185Z,11.47
2023-04-01T11:32:45.215Z,11.53
2023-04-01T11:35:30.446Z,11.59
2023-04-01T11:38:07.930Z,11.51
2023-04-01T11:41:12.423Z,11.52
2023-04-01T11:44:20.391Z,11.53
2023-04-01T11:47:04.863Z,11.54
2023-04-01T11:50:25.281Z,11.59
2023-04-01T11:53:07.470Z,11.59
2023-04-01T11:56:21.916Z,11.65
2023-04-01T11:59:20.391Z,11.59
2023-04-01T12:01:47.377Z,11.56
2023-04-01T12:04:49.699Z,11.60
2023-04-01T12:07:46.649Z,11.72
2023-04-01T12:10:45.972Z,11.66
2023-04-01T12:13:24.024Z,11.57
2023-04-01T12:16:19.881Z,11.50
2023-04-01T12:19:02.187Z,11.53
2023-04-01T12:21:50.292Z,11.55
2023-04-01T12:24:38.838Z,11.57
2023-04-01T12:27:28.639Z,11.38
2023-04-01T12:30:07.575Z,11.51
2023-04-01T12:32:46.894Z,11.45
2023-04-01T12:35:25.821Z,11.57
2023-04-01T12:38:11.690Z,11.70
2023-04-01T12:40:48.859Z,11.69
2023-04-01T12:43:42.238Z,11.72
2023-04-01T12:46:18.341Z,11.82
2023-04-01T12:49:12.200Z,11.92
2023-04-01T12:51:48.311Z,11.97
2023-04-01T12:54:49.184Z,11.82
2023-04-01T12:57:36.092Z,11.79
2023-04-01T13:00:34.663Z,11.87
2023-04-01T13:03:28.155Z,11.95
2023-04-01T13:06:07.020Z,11.97
2023-04-01T13:08:47.860Z,11.96
2023-04-01T13:11:48.574Z,11.95
2023-04-01T13:14:53.843Z,11.93
2023-04-01T13:17:39.827Z,11.72
2023-04-01T13:20:24.143Z,11.65
2023-04-01T13:23:10.120Z,11.44
2023-04-01T13:25:43.227Z,11.44
2023-04-01T13:28:11.499Z,11.45
2023-04-01T13:30:48.860Z,11.24
2023-04-01T13:33:30.521Z,11.00
2023-04-01T13:36:11.735Z,11.13
2023-04-01T13:39:02.536Z,11.09
2023-04-01T13:41:51.566Z,11.23
2023-04-01T13:44:33.410Z,11.04
2023-04-01T13:47:18.970Z,11.05
2023-04-01T13:50:02.837Z,11.24
2023-04-01T13:52:32.731Z,11.34
2023-04-01T13:55:20.432Z,11.31
2023-04-01T13:58:01.553Z,11.27
2023-04-01T14:00:37.241Z,11.16
2023-04-01T14:03:54.010Z,11.25
2023-04-01T14:06:58.429Z,11.16
2023-04-01T14:09:43.698Z,11.30
2023-04-01T14:12:16.982Z,11.21
2023-04-01T14:15:32.034Z,11.08
2023-04-01T14:18:01.828Z,11.13
2023-04-01T14:20:42.439Z,11.04
2023-04-01T14:23:26.070Z,11.07
2023-04-01T14:25:55.743Z,11.15
2023-04-01T14:28:34.896Z,11.14
2023-04-01T14:31:29.600Z,11.06
2023-04-01T14:34:33.889Z,11.01
2023-04-01T14:37:38.481Z,10.99
2023-04-01T14:40:27.149Z,10.96
2023-04-01T14:43:14.977Z,11.05
2023-04-01T14:45:52.592Z,10.96
2023-04-01T14:48:55.076Z,11.00
2023-04-01T14:51:33.238Z,11.06
2023-04-01T14:54:12.162Z,11.15
2023-04-01T14:56:42.850Z,11.08
2023-04-01T14:59:26.581Z,10.98
2023-04-01T15:02:18.068Z,11.20
2023-04-01T15:04:59.756Z,11.13
2023-04-01T15:08:01.516Z,11.14
2023-04-01T15:10:49.002Z,11.18
2023-04-01T15:13:19.856Z,11.24
2023-04-01T15:16:04.945Z,11.04
2023-04-01T15:18:35.254Z,11.06
2023-04-01T15:21:23.923Z,11.09
2023-04-01T15:24:05.701Z,11.12
2023-04-01T15:26:48.081Z,11.08
2023-04-01T15:29:33.623Z,11.15
2023-04-01T15:32:15.675Z,11.09
2023-04-01T15:34:56.932Z,10.98
2023-04-01T15:37:36.305Z,10.99
2023-04-01T15:40:29.567Z,11.01
2023-04-01T15:43:14.352Z,11.00
2023-04-01T15:45:53.070Z,10.88
2023-04-01T15:48:24.880Z,10.71
2023-04-01T15:51:18.911Z,10.73
2023-04-01T15:54:25.171Z,10.67
2023-04-01T15:57:06.280Z,10.69
2023-04-01T15:59:56.742Z,10.65
2023-04-01T16:02:47.208Z,10.61
2023-04-01T16:05:29.484Z,10.56
2023-04-01T16:08:03.956Z,10.62
2023-04-01T16:10:40.753Z,10.52
2023-04-01T16:13:56.404Z,10.52
2023-04-01T16:16:47.488Z,10.55
2023-04-01T16:19:38.818Z,10.56
2023-04-01T16:22:19.830Z,10.51
2023-04-01T16:24:46.872Z,10.57
2023-04-01T16:27:25.996Z,10.49
2023-04-01T16:30:02.514Z,10.39
2023-04-01T16:32:46.818Z,10.36
2023-04-01T16:35:28.086Z,10.25
2023-04-01T16:38:13.607Z,10.18
2023-04-01T16:40:51.338Z,10.27
2023-04-01T16:43:39.413Z,10.32
2023-04-01T16:46:27.582Z,10.18
2023-04-01T16:49:12.880Z,10.07
2023-04-01T16:51:51.887Z,10.10
2023-04-01T16:54:30.703Z,10.03
2023-04-01T16:57:10.869Z,10.04
2023-04-01T16:59:39.006Z,9.98
2023-04-01T17:02:11.306Z,10.06
2023-04-01T17:05:00.995Z,10.05
2023-04-01T17:07:37.761Z,10.10
2023-04-01T17:10:32.134Z,10.01
2023-04-01T17:13:22.301Z,10.06
2023-04-01T17:15:52.386Z,10.07
2023-04-01T17:18:28.421Z,10.10
2023-04-01T17:21:16.159Z,10.09
2023-04-01T17:23:51.880Z,10.02
2023-04-01T17:26:23.860Z,10.02
2023-04-01T17:29:04.670Z,9.85
2023-04-01T17:31:54.917Z,9.85
2023-04-01T17:34:27.904Z,9.88
2023-04-01T17:37:13.218Z,9.93
2023-04-01T17:39:46.335Z,9.84
2023-04-01T17:42:40.251Z,9.93
2023-04-01T17:45:32.628Z,9.95
2023-04-01T17:48:23.066Z,9.79
2023-04-01T17:51:18.684Z,9.77
2023-04-01T17:53:57.804Z,9.75
2023-04-01T17:56:55.646Z,9.74
2023-04-01T17:59:39.216Z,9.78
2023-04-01T18:02:37.348Z,9.71
2023-04-01T18:05:42.069Z,9.58
2023-04-01T18:08:13.860Z,9.65
2023-04-01T18:11:05.934Z,9.57
2023-04-01T18:14:15.722Z,9.58
2023-04-01T18:17:12.013Z,9.55
2023-04-01T18:19:45.125Z,9.52
2023-04-01T18:22:24.408Z,9.50
2023-04-01T18:25:17.532Z,9.46
2023-04-01T18:27:50.710Z,9.43
2023-04-01T18:30:28.966Z,9.52
2023-04-01T18:33:04.988Z,9.45
2023-04-01T18:35:57.200Z,9.38
2023-04-01T18:38:36.363Z,9.40
2023-04-01T18:41:22.219Z,9.45
2023-04-01T18:44:04.431Z,9.38
2023-04-01T18:46:54.224Z,9.35
2023-04-01T18:50:18.365Z,9.38
2023-04-01T18:52:46.292Z,9.42
2023-04-01T18:55:23.704Z,9.37
2023-04-01T18:57:57.539Z,9.40
2023-04-01T19:00:35.365Z,9.32
2023-04-01T19:03:16.961Z,9.36
2023-04-01T19:05:48.562Z,9.38
2023-04-01T19:08:36.981Z,9.42
2023-04-01T19:11:25.551Z,9.44
2023-04-01T19:14:23.158Z,9.28
2023-04-01T19:17:08.732Z,9.16
2023-04-01T19:19:50.783Z,9.14
2023-04-01T19:22:42.237Z,9.29
2023-04-01T19:25:24.658Z,9.27
2023-04-01T19:27:55.344Z,9.18
2023-04-01T19:30:48.408Z,9.24
2023-04-01T19:33:59.859Z,9.20
2023-04-01T19:36:40.513Z,9.24
2023-04-01T19:39:29.696Z,9.23
2023-04-01T19:42:12.279Z,9.16
2023-04-01T19:45:02.256Z,9.09
2023-04-01T19:47:47.567Z,9.07
2023-04-01T19:50:42.152Z,8.96
2023-04-01T19:53:42.122Z,8.89
2023-04-01T19:56:18.199Z,8.68
2023-04-01T19:59:18.806Z,8.79
2023-04-01T20:01:59.245Z,8.68
2023-04-01T20:04:38.681Z,8.76
2023-04-01T20:07:23.195Z,8.78
2023-04-01T20:10:13.180Z,8.82
2023-04-01T20:12:53.606Z,8.79
2023-04-01T20:15:29.421Z,8.69
2023-04-01T20:17:59.023Z,8.66
2023-04-01T20:20:29.010Z,8.61
2023-04-01T20:23:01.686Z,8.64
2023-04-01T20:25:38.941Z,8.51
2023-04-01T20:28:31.648Z,8.66
2023-04-01T20:31:27.094Z,8.55
2023-04-01T20:34:06.449Z,8.57
2023-04-01T20:36:51.915Z,8.60
2023-04-01T20:39:40.938Z,8.62
2023-04-01T20:42:28.212Z,8.39
2023-04-01T20:44:57.918Z,8.44
2023-04-01T20:47:49.661Z,8.57
2023-04-01T20:50:16.917Z,8.53
2023-04-01T20:52:54.462Z,8.40
2023-04-01T20:55:31.823Z,8.45
2023-04-01T20:58:47.516Z,8.41
2023-04-01T21:01:46.063Z,8.37
2023-04-01T21:04:31.689Z,8.21
2023-04-01T21:07:35.270Z,8.33
2023-04-01T21:10:02.331Z,8.33
2023-04-01T21:12:42.623Z,8.26
2023-04-01T21:15:27.724Z,8.19
2023-04-01T21:18:39.290Z,8.13
2023-04-01T21:21:22.959Z,8.00
2023-04-01T21:24:09.473Z,8.11
2023-04-01T21:27:00.687Z,8.10
2023-04-01T21:29:53.022Z,7.99
2023-04-01T21:32:26.513Z,7.93
2023-04-01T21:35:52.456Z,7.90
2023-04-01T21:38:44.545Z,7.92
2023-04-01T21:41:35.897Z,7.96
2023-04-01T21:44:29.552Z,8.00
2023-04-01T21:47:20.925Z,7.97
2023-04-01T21:49:57.626Z,7.87
2023-04-01T21:52:39.398Z,7.86
2023-04-01T21:55:21.704Z,7.88
2023-04-01T21:58:00.831Z,7.88
2023-04-01T22:00:36.032Z,7.87
2023-04-01T22:03:28.221Z,7.99
2023-04-01T22:06:23.208Z,7.99
2023-04-01T22:08:53.294Z,7.95
2023-04-01T22:11:38.405Z,7.87
2023-04-01T22:14:42.922Z,7.81
2023-04-01T22:17:30.552Z,7.67
2023-04-01T22:20:06.385Z,7.72
2023-04-01T22:22:52.174Z,7.44
2023-04-01T22:25:31.779Z,7.47
2023-04-01T22:28:13.574Z,7.46
2023-04-01T22:30:47.493Z,7.41
2023-04-01T22:33:54.196Z,7.44
2023-04-01T22:36:46.091Z,7.44
2023-04-01T22:39:44.589Z,7.37
2023-04-01T22:42:21.657Z,7.45
2023-04-01T22:45:12.266Z,7.36
2023-04-01T22:48:11.787Z,7.28
2023-04-01T22:50:54.930Z,7.27
2023-04-01T22:54:03.303Z,7.22
2023-04-01T22:56:48.766Z,7.32
2023-04-01T22:59:38.704Z,7.31
2023-04-01T23:02:29.554Z,7.09
2023-04-01T23:05:03.193Z,7.26
2023-04-01T23:07:47.747Z,7.32
2023-04-01T23:10:26.125Z,7.33
2023-04-01T23:12:59.139Z,7.25
2023-04-01T23:15:28.140Z,7.35
2023-04-01T23:18:40.973Z,7.25
2023-04-01T23:21:17.533Z,7.32
2023-04-01T23:24:00.487Z,7.27
2023-04-01T23:26:53.587Z,7.15
2023-04-01T23:29:22.042Z,7.18
2023-04-01T23:31:58.379Z,7.18
2023-04-01T23:34:29.215Z,7.17
2023-04-01T23:37:04.286Z,7.14
2023-04-01T23:39:44.904Z,7.14
2023-04-01T23:42:14.641Z,7.11
2023-04-01T23:44:44.685Z,7.05
2023-04-01T23:47:33.799Z,7.07
2023-04-01T23:50:24.263Z,6.96
2023-04-01T23:53:12.080Z,7.02
2023-04-01T23:55:42.863Z,7.01
2023-04-01T23:58:12.023Z,7.11
